createdAt,value
2023-01-12T00:02:08.529Z,7.17
2023-01-12T00:04:36.745Z,7.00
2023-01-12T00:07:07.438Z,7.87
2023-01-12T00:09:35.570Z,7.53
2023-01-12T00:12:06.007Z,7.40
2023-01-12T00:14:34.328Z,7.23
2023-01-12T00:17:02.183Z,6.93
2023-01-12T00:19:30.928Z,6.93
2023-01-12T00:22:02.222Z,6.43
2023-01-12T00:24:33.794Z,6.30
2023-01-12T00:27:03.984Z,6.50
2023-01-12T00:29:32.198Z,7.27
2023-01-12T00:32:00.721Z,6.67
2023-01-12T00:34:29.774Z,6.27
2023-01-12T00:36:58.351Z,5.83
2023-01-12T00:39:26.162Z,6.10
2023-01-12T00:42:12.916Z,5.80
2023-01-12T00:44:58.028Z,6.27
2023-01-12T00:47:25.872Z,6.27
2023-01-12T00:49:54.178Z,7.30
2023-01-12T00:52:30.688Z,6.23
2023-01-12T00:54:59.319Z,5.40
2023-01-12T00:57:29.481Z,5.87
2023-01-12T00:59:59.420Z,5.27
2023-01-12T01:02:28.058Z,5.40
2023-01-12T01:04:56.217Z,5.37
2023-01-12T01:07:24.721Z,4.60
2023-01-12T01:09:52.638Z,4.57
2023-01-12T01:12:20.811Z,4.30
2023-01-12T01:14:49.875Z,4.77
2023-01-12T01:17:17.724Z,4.47
2023-01-12T01:19:45.525Z,4.57
2023-01-12T01:22:13.457Z,4.33
2023-01-12T01:24:41.448Z,4.90
2023-01-12T01:27:09.214Z,5.07
2023-01-12T01:29:37.046Z,4.30
2023-01-12T01:32:06.620Z,4.33
2023-01-12T01:34:34.929Z,3.67
2023-01-12T01:37:02.751Z,3.50
2023-01-12T01:39:30.509Z,3.57
2023-01-12T01:41:58.286Z,3.53
2023-01-12T01:44:49.826Z,3.33
2023-01-12T01:47:26.092Z,3.40
2023-01-12T01:49:57.176Z,3.80
2023-01-12T01:52:29.651Z,3.23
2023-01-12T01:55:00.666Z,3.90
2023-01-12T01:57:34.700Z,3.70
2023-01-12T02:00:03.838Z,3.87
2023-01-12T02:02:33.306Z,3.13
2023-01-12T02:05:01.847Z,4.17
2023-01-12T02:07:29.727Z,3.20
2023-01-12T02:09:57.406Z,3.23
2023-01-12T02:12:42.667Z,3.47
2023-01-12T02:15:28.398Z,3.33
2023-01-12T02:18:10.686Z,3.30
2023-01-12T02:20:56.228Z,3.00
2023-01-12T02:23:45.234Z,3.07
2023-01-12T02:27:15.674Z,3.20
2023-01-12T02:30:21.798Z,2.83
2023-01-12T02:33:00.584Z,2.93
2023-01-12T02:35:33.979Z,2.90
2023-01-12T02:38:12.417Z,3.40
2023-01-12T02:40:48.960Z,3.03
2023-01-12T02:43:24.276Z,3.80
2023-01-12T02:45:56.129Z,3.17
2023-01-12T02:48:29.532Z,2.97
2023-01-12T02:51:04.675Z,3.50
2023-01-12T02:53:43.122Z,2.70
2023-01-12T02:56:13.084Z,2.93
2023-01-12T02:58:46.179Z,3.10
2023-01-12T03:01:16.352Z,3.37
2023-01-12T03:03:46.341Z,3.17
2023-01-12T03:06:17.470Z,2.50
2023-01-12T03:08:47.212Z,2.57
2023-01-12T03:11:16.349Z,2.70
2023-01-12T03:13:48.916Z,2.43
2023-01-12T03:16:21.010Z,3.60
2023-01-12T03:18:54.418Z,2.43
2023-01-12T03:21:30.662Z,2.77
2023-01-12T03:24:03.636Z,3.10
2023-01-12T03:26:34.219Z,3.00
2023-01-12T03:29:09.358Z,2.63
2023-01-12T03:31:38.182Z,2.27
2023-01-12T03:34:08.130Z,2.33
2023-01-12T03:36:46.325Z,2.87
2023-01-12T03:39:20.540Z,2.30
2023-01-12T03:41:57.584Z,2.60
2023-01-12T03:44:32.561Z,3.00
2023-01-12T03:47:04.965Z,2.13
2023-01-12T03:49:40.734Z,2.37
2023-01-12T03:52:11.091Z,2.70
2023-01-12T03:54:41.650Z,2.60
2023-01-12T03:57:12.085Z,3.93
2023-01-12T03:59:40.003Z,2.53
2023-01-12T04:02:07.790Z,2.63
2023-01-12T04:04:37.033Z,2.43
2023-01-12T04:07:04.818Z,2.20
2023-01-12T04:09:32.575Z,2.43
2023-01-12T04:12:12.050Z,2.70
2023-01-12T04:14:40.608Z,2.47
2023-01-12T04:17:09.622Z,2.73
2023-01-12T04:19:38.997Z,2.53
2023-01-12T04:22:24.282Z,2.87
2023-01-12T04:24:51.963Z,2.80
2023-01-12T04:27:20.017Z,2.83
2023-01-12T04:29:47.768Z,2.20
2023-01-12T04:32:15.666Z,1.93
2023-01-12T04:34:45.103Z,3.20
2023-01-12T04:37:13.204Z,3.33
2023-01-12T04:39:40.912Z,2.73
2023-01-12T04:42:28.979Z,2.37
2023-01-12T04:44:56.781Z,2.50
2023-01-12T04:47:24.583Z,2.70
2023-01-12T04:49:53.776Z,2.60
2023-01-12T04:52:21.614Z,2.70
2023-01-12T04:54:49.288Z,2.97
2023-01-12T04:57:17.115Z,2.20
2023-01-12T04:59:44.900Z,2.17
2023-01-12T05:02:12.721Z,2.20
2023-01-12T05:04:40.551Z,2.23
2023-01-12T05:07:09.726Z,1.93
2023-01-12T05:09:54.928Z,2.57
2023-01-12T05:12:23.584Z,2.30
2023-01-12T05:14:51.383Z,2.37
2023-01-12T05:17:19.261Z,2.60
2023-01-12T05:19:48.326Z,3.13
2023-01-12T05:22:17.692Z,2.00
2023-01-12T05:24:45.449Z,2.50
2023-01-12T05:27:13.174Z,2.47
2023-01-12T05:29:40.895Z,2.40
2023-01-12T05:32:08.691Z,2.03
2023-01-12T05:34:36.469Z,2.20
2023-01-12T05:37:04.310Z,2.00
2023-01-12T05:39:33.563Z,2.47
2023-01-12T05:42:18.912Z,2.57
2023-01-12T05:44:46.641Z,2.80
2023-01-12T05:47:14.451Z,1.87
2023-01-12T05:49:42.176Z,1.93
2023-01-12T05:52:09.955Z,2.40
2023-01-12T05:54:39.121Z,2.40
2023-01-12T05:57:06.891Z,2.87
2023-01-12T05:59:34.704Z,2.93
2023-01-12T06:02:02.573Z,2.37
2023-01-12T06:04:30.342Z,1.90
2023-01-12T06:06:58.214Z,2.60
2023-01-12T06:09:25.928Z,3.00
2023-01-12T06:12:12.536Z,2.60
2023-01-12T06:14:40.327Z,2.37
2023-01-12T06:17:08.256Z,2.37
2023-01-12T06:19:36.102Z,2.40
2023-01-12T06:22:04.072Z,2.50
2023-01-12T06:24:31.821Z,1.97
2023-01-12T06:27:01.264Z,2.33
2023-01-12T06:29:29.240Z,2.33
2023-01-12T06:31:57.095Z,3.00
2023-01-12T06:34:24.872Z,2.77
2023-01-12T06:36:52.624Z,2.23
2023-01-12T06:39:20.441Z,2.70
2023-01-12T06:42:05.743Z,2.70
2023-01-12T06:44:34.974Z,3.60
2023-01-12T06:47:03.608Z,2.90
2023-01-12T06:49:31.475Z,2.87
2023-01-12T06:51:59.397Z,2.43
2023-01-12T06:54:27.107Z,3.30
2023-01-12T06:56:55.657Z,2.57
2023-01-12T06:59:23.530Z,2.40
2023-01-12T07:01:53.019Z,2.50
2023-01-12T07:04:20.876Z,2.30
2023-01-12T07:06:49.100Z,2.17
2023-01-12T07:09:16.786Z,2.97
2023-01-12T07:11:44.527Z,3.37
2023-01-12T07:14:12.305Z,2.40
2023-01-12T07:16:40.248Z,3.20
2023-01-12T07:19:09.529Z,2.43
2023-01-12T07:21:37.361Z,2.33
2023-01-12T07:24:05.393Z,2.10
2023-01-12T07:26:33.285Z,3.03
2023-01-12T07:29:01.085Z,2.33
2023-01-12T07:31:29.280Z,2.10
2023-01-12T07:33:57.289Z,1.97
2023-01-12T07:36:26.749Z,2.80
2023-01-12T07:38:54.669Z,2.90
2023-01-12T07:41:40.204Z,2.97
2023-01-12T07:44:07.935Z,3.10
2023-01-12T07:46:36.106Z,3.37
2023-01-12T07:49:04.078Z,2.50
2023-01-12T07:51:33.220Z,2.60
2023-01-12T07:54:01.166Z,2.80
2023-01-12T07:56:28.982Z,2.20
2023-01-12T07:58:56.741Z,2.20
2023-01-12T08:01:24.741Z,2.67
2023-01-12T08:03:52.657Z,2.57
2023-01-12T08:06:20.398Z,2.33
2023-01-12T08:08:49.530Z,2.87
2023-01-12T08:11:17.242Z,2.67
2023-01-12T08:13:44.944Z,2.83
2023-01-12T08:16:17.408Z,2.33
2023-01-12T08:18:49.286Z,2.20
2023-01-12T08:21:21.727Z,2.37
2023-01-12T08:23:54.762Z,2.93
2023-01-12T08:26:27.301Z,3.20
2023-01-12T08:28:59.252Z,2.37
2023-01-12T08:31:28.029Z,2.67
2023-01-12T08:33:57.258Z,2.73
2023-01-12T08:36:26.766Z,2.30
2023-01-12T08:38:57.376Z,3.37
2023-01-12T08:41:34.303Z,2.33
2023-01-12T08:44:07.192Z,3.53
2023-01-12T08:46:37.521Z,3.30
2023-01-12T08:49:12.066Z,2.50
2023-01-12T08:51:45.612Z,2.40
2023-01-12T08:54:19.364Z,2.80
2023-01-12T08:56:47.770Z,2.53
2023-01-12T08:59:16.326Z,2.67
2023-01-12T09:01:44.760Z,1.87
2023-01-12T09:04:13.031Z,3.37
2023-01-12T09:06:42.619Z,2.43
2023-01-12T09:09:12.369Z,2.83
2023-01-12T09:11:43.578Z,2.27
2023-01-12T09:14:11.780Z,2.07
2023-01-12T09:16:40.127Z,2.80
2023-01-12T09:19:08.045Z,2.87
2023-01-12T09:21:39.064Z,7.50
2023-01-12T09:24:10.601Z,1.80
2023-01-12T09:26:39.955Z,2.63
2023-01-12T09:29:11.369Z,2.77
2023-01-12T09:31:41.275Z,2.80
2023-01-12T09:34:09.599Z,2.77
2023-01-12T09:36:40.007Z,2.13
2023-01-12T09:39:12.792Z,2.37
2023-01-12T09:42:05.658Z,1.87
2023-01-12T09:44:55.139Z,4.80
2023-01-12T09:47:29.619Z,2.23
2023-01-12T09:50:10.660Z,2.13
2023-01-12T09:52:42.316Z,2.30
2023-01-12T09:55:16.447Z,2.60
2023-01-12T09:58:15.190Z,3.20
2023-01-12T10:00:46.709Z,3.47
2023-01-12T10:03:27.157Z,2.40
2023-01-12T10:06:00.391Z,2.27
2023-01-12T10:08:33.616Z,2.47
2023-01-12T10:11:09.021Z,2.67
2023-01-12T10:13:53.140Z,2.30
2023-01-12T10:16:31.872Z,2.23
2023-01-12T10:19:11.970Z,2.50
2023-01-12T10:21:42.727Z,2.50
2023-01-12T10:24:13.844Z,2.30
2023-01-12T10:26:44.329Z,2.60
2023-01-12T10:29:13.769Z,2.53
2023-01-12T10:31:43.235Z,2.17
2023-01-12T10:34:13.338Z,2.30
2023-01-12T10:36:44.621Z,1.97
2023-01-12T10:39:31.003Z,2.90
2023-01-12T10:42:39.082Z,2.73
2023-01-12T10:45:21.317Z,1.90
2023-01-12T10:47:53.555Z,2.17
2023-01-12T10:50:24.237Z,2.90
2023-01-12T10:52:57.304Z,2.87
2023-01-12T10:55:29.785Z,1.97
2023-01-12T10:57:57.830Z,1.83
2023-01-12T11:00:27.937Z,2.60
2023-01-12T11:02:58.491Z,2.70
2023-01-12T11:05:39.589Z,2.43
2023-01-12T11:08:24.486Z,2.20
2023-01-12T11:10:52.533Z,2.40
2023-01-12T11:13:27.707Z,2.30
2023-01-12T11:16:06.650Z,2.80
2023-01-12T11:18:42.023Z,2.30
2023-01-12T11:21:14.033Z,1.90
2023-01-12T11:23:57.488Z,1.50
2023-01-12T11:26:30.975Z,1.77
2023-01-12T11:29:04.122Z,2.13
2023-01-12T11:31:38.512Z,1.90
2023-01-12T11:34:17.974Z,2.33
2023-01-12T11:36:49.125Z,2.53
2023-01-12T11:39:21.797Z,2.63
2023-01-12T11:42:06.914Z,2.50
2023-01-12T11:44:40.950Z,3.47
2023-01-12T11:47:14.534Z,3.00
2023-01-12T11:49:53.363Z,2.30
2023-01-12T11:52:21.644Z,2.50
2023-01-12T11:54:49.642Z,2.17
2023-01-12T11:57:32.069Z,2.77
2023-01-12T12:00:13.345Z,2.17
2023-01-12T12:02:47.157Z,4.20
2023-01-12T12:05:30.012Z,2.57
2023-01-12T12:08:13.542Z,2.20
2023-01-12T12:10:48.867Z,2.23
2023-01-12T12:13:34.692Z,2.30
2023-01-12T12:16:17.678Z,2.37
2023-01-12T12:19:12.097Z,3.90
2023-01-12T12:21:48.821Z,8.43
2023-01-12T12:24:28.273Z,2.73
2023-01-12T12:27:04.992Z,3.37
2023-01-12T12:29:54.546Z,1.80
2023-01-12T12:32:32.069Z,2.00
2023-01-12T12:35:14.807Z,1.70
2023-01-12T12:37:52.362Z,1.73
2023-01-12T12:40:55.283Z,1.60
2023-01-12T12:43:48.137Z,1.40
2023-01-12T12:46:24.204Z,1.50
2023-01-12T12:49:01.185Z,1.13
2023-01-12T12:51:31.877Z,1.80
2023-01-12T12:54:06.615Z,1.93
2023-01-12T12:56:37.202Z,1.50
2023-01-12T12:59:05.510Z,1.77
2023-01-12T13:01:42.297Z,1.83
2023-01-12T13:04:12.466Z,1.80
2023-01-12T13:06:43.723Z,1.37
2023-01-12T13:09:42.187Z,1.63
2023-01-12T13:12:20.578Z,1.77
2023-01-12T13:15:17.545Z,1.57
2023-01-12T13:17:52.837Z,1.30
2023-01-12T13:20:59.658Z,1.20
2023-01-12T13:24:17.275Z,1.73
2023-01-12T13:26:52.269Z,1.40
2023-01-12T13:29:50.175Z,1.30
2023-01-12T13:32:41.530Z,1.17
2023-01-12T13:36:09.093Z,1.90
2023-01-12T13:38:53.457Z,1.43
2023-01-12T13:41:43.081Z,2.40
2023-01-12T13:44:17.796Z,1.20
2023-01-12T13:46:48.494Z,2.13
2023-01-12T13:49:27.528Z,1.30
2023-01-12T13:52:01.063Z,2.90
2023-01-12T13:54:29.712Z,1.00
2023-01-12T13:57:00.080Z,1.30
2023-01-12T13:59:30.871Z,1.30
2023-01-12T14:01:59.199Z,1.20
2023-01-12T14:04:58.472Z,1.10
2023-01-12T14:07:47.220Z,1.63
2023-01-12T14:10:27.383Z,1.30
2023-01-12T14:13:36.874Z,1.80
2023-01-12T14:16:30.597Z,2.10
2023-01-12T14:18:58.950Z,1.47
2023-01-12T14:21:29.461Z,1.50
2023-01-12T14:24:16.378Z,1.40
2023-01-12T14:26:47.751Z,1.17
2023-01-12T14:29:16.100Z,1.50
2023-01-12T14:31:48.330Z,8.73
2023-01-12T14:34:28.789Z,3.93
2023-01-12T14:36:59.236Z,1.23
2023-01-12T14:39:29.363Z,0.93
2023-01-12T14:42:15.999Z,0.90
2023-01-12T14:45:08.788Z,1.20
2023-01-12T14:47:38.780Z,1.17
2023-01-12T14:50:17.296Z,1.20
2023-01-12T14:52:47.073Z,1.97
2023-01-12T14:55:16.629Z,1.83
2023-01-12T14:57:48.740Z,2.33
2023-01-12T15:00:23.051Z,1.70
2023-01-12T15:02:54.468Z,1.90
2023-01-12T15:05:25.628Z,1.40
2023-01-12T15:07:56.317Z,1.90
2023-01-12T15:10:30.621Z,0.97
2023-01-12T15:13:00.492Z,1.30
2023-01-12T15:15:51.061Z,1.20
2023-01-12T15:18:38.947Z,1.10
2023-01-12T15:21:24.897Z,1.30
2023-01-12T15:24:21.778Z,1.60
2023-01-12T15:27:01.929Z,1.90
2023-01-12T15:29:34.394Z,1.60
2023-01-12T15:32:02.921Z,0.93
2023-01-12T15:34:34.368Z,1.10
2023-01-12T15:37:02.417Z,1.60
2023-01-12T15:39:30.510Z,2.10
2023-01-12T15:42:15.946Z,1.80
2023-01-12T15:44:44.657Z,2.70
2023-01-12T15:47:13.450Z,1.47
2023-01-12T15:49:44.189Z,1.67
2023-01-12T15:52:14.792Z,2.00
2023-01-12T15:54:45.712Z,1.73
2023-01-12T15:57:15.323Z,1.40
2023-01-12T15:59:43.592Z,4.17
2023-01-12T16:02:26.286Z,1.90
2023-01-12T16:04:58.650Z,1.30
2023-01-12T16:07:26.509Z,2.07
2023-01-12T16:09:55.753Z,1.20
2023-01-12T16:12:24.262Z,1.40
2023-01-12T16:14:53.347Z,1.20
2023-01-12T16:17:23.751Z,1.57
2023-01-12T16:19:51.956Z,1.30
2023-01-12T16:22:25.137Z,1.40
2023-01-12T16:24:55.011Z,1.30
2023-01-12T16:27:26.184Z,9.30
2023-01-12T16:29:54.684Z,3.60
2023-01-12T16:32:25.133Z,1.60
2023-01-12T16:34:53.553Z,1.27
2023-01-12T16:37:27.478Z,2.07
2023-01-12T16:39:55.725Z,1.53
2023-01-12T16:42:24.236Z,5.73
2023-01-12T16:44:52.168Z,1.77
2023-01-12T16:47:21.542Z,2.10
2023-01-12T16:49:50.192Z,3.13
2023-01-12T16:52:21.285Z,1.80
2023-01-12T16:54:50.610Z,3.23
2023-01-12T16:57:19.937Z,3.23
2023-01-12T16:59:50.864Z,4.13
2023-01-12T17:02:19.948Z,1.63
2023-01-12T17:04:51.959Z,1.97
2023-01-12T17:07:20.100Z,1.57
2023-01-12T17:09:48.445Z,2.47
2023-01-12T17:12:18.342Z,3.47
2023-01-12T17:14:46.330Z,1.50
2023-01-12T17:17:14.181Z,1.60
2023-01-12T17:19:43.821Z,2.23
2023-01-12T17:22:12.916Z,1.60
2023-01-12T17:24:41.986Z,1.70
2023-01-12T17:27:11.548Z,1.83
2023-01-12T17:29:40.994Z,1.80
2023-01-12T17:32:09.347Z,1.60
2023-01-12T17:34:39.498Z,1.50
2023-01-12T17:37:08.859Z,3.50
2023-01-12T17:39:39.706Z,1.50
2023-01-12T17:42:25.014Z,1.93
2023-01-12T17:44:54.192Z,2.30
2023-01-12T17:47:21.987Z,1.10
2023-01-12T17:49:49.809Z,1.73
2023-01-12T17:52:18.193Z,1.30
2023-01-12T17:54:45.940Z,1.60
2023-01-12T17:57:13.839Z,1.60
2023-01-12T17:59:41.752Z,1.43
2023-01-12T18:02:14.338Z,1.30
2023-01-12T18:04:42.515Z,1.30
2023-01-12T18:07:10.644Z,1.23
2023-01-12T18:09:38.519Z,1.10
2023-01-12T18:12:06.745Z,1.60
2023-01-12T18:14:35.084Z,1.40
2023-01-12T18:17:02.856Z,1.20
2023-01-12T18:19:33.333Z,1.50
2023-01-12T18:22:05.910Z,2.13
2023-01-12T18:24:33.876Z,1.60
2023-01-12T18:27:01.743Z,1.60
2023-01-12T18:29:29.667Z,2.20
2023-01-12T18:31:57.517Z,1.50
2023-01-12T18:34:25.524Z,1.50
2023-01-12T18:36:55.058Z,1.40
2023-01-12T18:39:23.031Z,1.20
2023-01-12T18:42:08.960Z,1.67
2023-01-12T18:44:37.979Z,1.20
2023-01-12T18:47:23.439Z,2.40
2023-01-12T18:49:51.830Z,2.23
2023-01-12T18:52:38.523Z,1.80
2023-01-12T18:55:07.251Z,2.10
2023-01-12T18:57:35.828Z,1.43
2023-01-12T19:00:13.885Z,1.87
2023-01-12T19:02:42.105Z,1.77
2023-01-12T19:05:25.370Z,1.43
2023-01-12T19:08:24.893Z,1.40
2023-01-12T19:10:52.900Z,1.43
2023-01-12T19:13:38.244Z,1.30
2023-01-12T19:16:24.503Z,1.43
2023-01-12T19:18:53.285Z,1.83
2023-01-12T19:21:38.587Z,1.73
2023-01-12T19:24:28.124Z,1.50
2023-01-12T19:27:13.499Z,1.43
2023-01-12T19:29:43.330Z,1.40
2023-01-12T19:32:12.554Z,1.33
2023-01-12T19:34:40.325Z,1.53
2023-01-12T19:37:08.185Z,1.23
2023-01-12T19:39:59.485Z,0.90
2023-01-12T19:42:46.150Z,1.40
2023-01-12T19:45:14.198Z,1.57
2023-01-12T19:47:42.212Z,1.40
2023-01-12T19:50:13.292Z,1.07
2023-01-12T19:52:43.377Z,1.00
2023-01-12T19:55:14.740Z,1.30
2023-01-12T19:57:43.988Z,1.10
2023-01-12T20:00:15.491Z,1.40
2023-01-12T20:02:43.798Z,1.00
2023-01-12T20:05:13.471Z,1.20
2023-01-12T20:07:41.633Z,1.30
2023-01-12T20:10:10.630Z,1.17
2023-01-12T20:12:39.874Z,1.10
2023-01-12T20:15:09.025Z,1.23
2023-01-12T20:17:37.053Z,1.30
2023-01-12T20:20:08.266Z,1.40
2023-01-12T20:22:36.375Z,0.90
2023-01-12T20:25:05.069Z,0.87
2023-01-12T20:27:33.931Z,1.90
2023-01-12T20:30:03.992Z,1.80
2023-01-12T20:32:32.364Z,1.40
2023-01-12T20:35:04.546Z,1.23
2023-01-12T20:37:34.438Z,1.67
2023-01-12T20:40:02.458Z,1.30
2023-01-12T20:42:31.656Z,1.30
2023-01-12T20:44:59.867Z,1.40
2023-01-12T20:47:31.404Z,1.30
2023-01-12T20:50:00.507Z,1.30
2023-01-12T20:52:29.432Z,1.43
2023-01-12T20:54:57.219Z,2.17
2023-01-12T20:57:25.465Z,2.00
2023-01-12T20:59:53.785Z,1.63
2023-01-12T21:02:25.821Z,1.57
2023-01-12T21:04:56.601Z,1.43
2023-01-12T21:07:24.867Z,1.50
2023-01-12T21:10:17.216Z,1.57
2023-01-12T21:12:50.468Z,1.50
2023-01-12T21:15:18.526Z,1.60
2023-01-12T21:17:48.383Z,1.40
2023-01-12T21:21:02.212Z,1.67
2023-01-12T21:23:37.157Z,1.60
2023-01-12T21:26:07.758Z,1.40
2023-01-12T21:28:37.711Z,1.63
2023-01-12T21:31:08.358Z,1.80
2023-01-12T21:33:36.976Z,1.50
2023-01-12T21:36:05.689Z,1.47
2023-01-12T21:38:35.285Z,1.40
2023-01-12T21:41:04.988Z,3.07
2023-01-12T21:43:34.087Z,2.13
2023-01-12T21:46:06.534Z,2.30
2023-01-12T21:48:34.854Z,1.70
2023-01-12T21:51:03.601Z,1.57
2023-01-12T21:53:34.436Z,1.50
2023-01-12T21:56:05.699Z,1.30
2023-01-12T21:58:36.217Z,2.30
2023-01-12T22:01:10.902Z,1.83
2023-01-12T22:03:39.322Z,1.30
2023-01-12T22:06:09.617Z,1.30
2023-01-12T22:08:38.113Z,1.00
2023-01-12T22:11:09.411Z,1.50
2023-01-12T22:13:40.925Z,1.60
2023-01-12T22:16:11.638Z,1.10
2023-01-12T22:18:41.039Z,1.27
2023-01-12T22:21:11.055Z,1.30
2023-01-12T22:23:39.644Z,1.20
2023-01-12T22:26:10.773Z,1.50
2023-01-12T22:28:41.256Z,1.27
2023-01-12T22:31:10.815Z,1.30
2023-01-12T22:33:38.763Z,1.20
2023-01-12T22:36:08.200Z,1.30
2023-01-12T22:38:36.071Z,2.00
2023-01-12T22:41:10.073Z,1.43
2023-01-12T22:44:01.833Z,1.43
2023-01-12T22:46:29.945Z,1.60
2023-01-12T22:48:59.679Z,1.47
2023-01-12T22:51:31.300Z,1.10
2023-01-12T22:53:59.337Z,1.50
2023-01-12T22:56:28.591Z,2.00
2023-01-12T22:58:57.839Z,1.37
2023-01-12T23:01:26.880Z,1.53
2023-01-12T23:03:55.798Z,1.10
2023-01-12T23:06:25.150Z,1.20
2023-01-12T23:08:53.145Z,1.00
2023-01-12T23:11:23.544Z,1.33
2023-01-12T23:13:54.416Z,1.33
2023-01-12T23:16:22.943Z,1.30
2023-01-12T23:18:53.245Z,1.47
2023-01-12T23:21:25.873Z,1.40
2023-01-12T23:24:00.669Z,1.43
2023-01-12T23:26:32.254Z,1.43
2023-01-12T23:29:03.582Z,1.20
2023-01-12T23:31:33.605Z,1.07
2023-01-12T23:34:01.765Z,1.30
2023-01-12T23:36:30.984Z,1.20
2023-01-12T23:39:01.644Z,1.40
2023-01-12T23:41:32.919Z,1.73
2023-01-12T23:44:04.021Z,1.20
2023-01-12T23:46:37.870Z,1.57
2023-01-12T23:49:06.593Z,1.17
2023-01-12T23:51:36.308Z,1.23
2023-01-12T23:54:04.562Z,0.93
2023-01-12T23:56:34.654Z,1.00
2023-01-12T23:59:03.957Z,1.20
